sensor_id;sensor_type;location;lat;lon;timestamp;pressure;altitude;pressure_sealevel;temperature;humidity
53699;BME280;68408;53.952;27.612;2023-04-25T00:01:15;1004.5;;;12;41.5
53699;BME280;68408;53.952;27.612;2023-04-25T00:06:51;1004.4;;;12;41.6
53699;BME280;68408;53.952;27.612;2023-04-25T00:11:05;1004.4;;;11.9;41.7
53699;BME280;68408;53.952;27.612;2023-04-25T00:16:05;1004.4;;;11.9;41.9
53699;BME280;68408;53.952;27.612;2023-04-25T00:21:51;1004.3;;;11.8;42
53699;BME280;68408;53.952;27.612;2023-04-25T00:26:31;1004.3;;;11.8;42.1
53699;BME280;68408;53.952;27.612;2023-04-25T00:31:13;1004.2;;;11.8;42.2
53699;BME280;68408;53.952;27.612;2023-04-25T00:36:35;1004.2;;;11.7;42.4
53699;BME280;68408;53.952;27.612;2023-04-25T00:41:51;1004.2;;;11.7;42.4
53699;BME280;68408;53.952;27.612;2023-04-25T00:46:05;1004.2;;;11.7;42.6
53699;BME280;68408;53.952;27.612;2023-04-25T00:51:53;1004.2;;;11.7;42.6
53699;BME280;68408;53.952;27.612;2023-04-25T00:56:07;1004.2;;;11.6;42.8
53699;BME280;68408;53.952;27.612;2023-04-25T01:01:53;1004.2;;;11.6;42.9
53699;BME280;68408;53.952;27.612;2023-04-25T01:06:27;1004.2;;;11.6;43.1
53699;BME280;68408;53.952;27.612;2023-04-25T01:11:41;1004.2;;;11.5;43.3
53699;BME280;68408;53.952;27.612;2023-04-25T01:16:51;1004.2;;;11.5;43.4
53699;BME280;68408;53.952;27.612;2023-04-25T01:21:51;1004.1;;;11.5;43.4
53699;BME280;68408;53.952;27.612;2023-04-25T01:26:05;1004.1;;;11.4;43.6
53699;BME280;68408;53.952;27.612;2023-04-25T01:31:51;1004;;;11.4;43.7
53699;BME280;68408;53.952;27.612;2023-04-25T01:36:43;1004;;;11.4;43.8
53699;BME280;68408;53.952;27.612;2023-04-25T01:41:15;1004;;;11.3;43.9
53699;BME280;68408;53.952;27.612;2023-04-25T01:46:25;1004;;;11.3;44
53699;BME280;68408;53.952;27.612;2023-04-25T01:51:53;1004;;;11.3;44.1
53699;BME280;68408;53.952;27.612;2023-04-25T01:56:17;1004;;;11.2;44.2
53699;BME280;68408;53.952;27.612;2023-04-25T02:01:41;1003.9;;;11.2;44.4
53699;BME280;68408;53.952;27.612;2023-04-25T02:06:39;1003.9;;;11.2;44.6
53699;BME280;68408;53.952;27.612;2023-04-25T02:11:33;1003.8;;;11.2;44.8
53699;BME280;68408;53.952;27.612;2023-04-25T02:16:15;1003.8;;;11.1;45.1
53699;BME280;68408;53.952;27.612;2023-04-25T02:21:31;1003.8;;;11;45.2
53699;BME280;68408;53.952;27.612;2023-04-25T02:26:17;1003.7;;;11;45.3
53699;BME280;68408;53.952;27.612;2023-04-25T02:31:31;1003.7;;;10.9;45.6
53699;BME280;68408;53.952;27.612;2023-04-25T02:36:31;1003.7;;;10.9;45.8
53699;BME280;68408;53.952;27.612;2023-04-25T02:41:39;1003.6;;;10.8;45.9
53699;BME280;68408;53.952;27.612;2023-04-25T02:46:37;1003.6;;;10.8;46.1
53699;BME280;68408;53.952;27.612;2023-04-25T02:51:53;1003.6;;;10.8;46.1
53699;BME280;68408;53.952;27.612;2023-04-25T02:56:23;1003.5;;;10.8;46.3
53699;BME280;68408;53.952;27.612;2023-04-25T03:01:05;1003.5;;;10.8;46.4
53699;BME280;68408;53.952;27.612;2023-04-25T03:06:17;1003.5;;;10.8;46.3
53699;BME280;68408;53.952;27.612;2023-04-25T03:11:53;1003.5;;;10.8;46.4
53699;BME280;68408;53.952;27.612;2023-04-25T03:16:27;1003.4;;;10.9;46.4
53699;BME280;68408;53.952;27.612;2023-04-25T03:21:39;1003.5;;;11;46.3
53699;BME280;68408;53.952;27.612;2023-04-25T03:26:51;1003.6;;;11.1;46.3
53699;BME280;68408;53.952;27.612;2023-04-25T03:31:17;1003.5;;;11.2;46.1
53699;BME280;68408;53.952;27.612;2023-04-25T03:36:17;1003.5;;;11.3;45.9
53699;BME280;68408;53.952;27.612;2023-04-25T03:41:21;1003.4;;;12.1;44.7
53699;BME280;68408;53.952;27.612;2023-04-25T03:46:51;1003.3;;;12.4;44.3
53699;BME280;68408;53.952;27.612;2023-04-25T03:51:17;1003.4;;;12.4;44.2
53699;BME280;68408;53.952;27.612;2023-04-25T03:56:49;1003.4;;;12.5;44.1
53699;BME280;68408;53.952;27.612;2023-04-25T04:01:49;1003.4;;;12.5;44
53699;BME280;68408;53.952;27.612;2023-04-25T04:06:06;1003.4;;;12.6;43.9
53699;BME280;68408;53.952;27.612;2023-04-25T04:11:27;1003.4;;;12.6;43.7
53699;BME280;68408;53.952;27.612;2023-04-25T04:16:41;1003.4;;;12.7;43.7
53699;BME280;68408;53.952;27.612;2023-04-25T04:21:35;1003.4;;;12.8;43.5
53699;BME280;68408;53.952;27.612;2023-04-25T04:26:43;1003.3;;;12.9;43.4
53699;BME280;68408;53.952;27.612;2023-04-25T04:31:19;1003.3;;;12.9;43.3
53699;BME280;68408;53.952;27.612;2023-04-25T04:36:37;1003.3;;;12.9;43.4
53699;BME280;68408;53.952;27.612;2023-04-25T04:41:35;1003.2;;;13.1;43.3
53699;BME280;68408;53.952;27.612;2023-04-25T04:46:05;1003.2;;;13.2;43.1
53699;BME280;68408;53.952;27.612;2023-04-25T04:51:23;1003.2;;;13.3;43.1
53699;BME280;68408;53.952;27.612;2023-04-25T04:56:51;1003.2;;;13.6;42.9
53699;BME280;68408;53.952;27.612;2023-04-25T05:01:27;1003.1;;;13.7;42.7
53699;BME280;68408;53.952;27.612;2023-04-25T05:06:39;1003.1;;;13.8;42.7
53699;BME280;68408;53.952;27.612;2023-04-25T05:11:07;1003.2;;;14;42.3
53699;BME280;68408;53.952;27.612;2023-04-25T05:16:27;1003.2;;;14.2;42.3
53699;BME280;68408;53.952;27.612;2023-04-25T05:21:39;1003.2;;;14.5;41.6
53699;BME280;68408;53.952;27.612;2023-04-25T05:26:05;1003.3;;;14.6;41.3
53699;BME280;68408;53.952;27.612;2023-04-25T05:31:05;1003.3;;;14.7;41.3
53699;BME280;68408;53.952;27.612;2023-04-25T05:36:31;1003.2;;;14.9;41
53699;BME280;68408;53.952;27.612;2023-04-25T05:41:17;1003.3;;;15.1;40.7
53699;BME280;68408;53.952;27.612;2023-04-25T05:46:05;1003.4;;;15.2;40.6
53699;BME280;68408;53.952;27.612;2023-04-25T05:51:07;1003.4;;;15.3;40.4
53699;BME280;68408;53.952;27.612;2023-04-25T05:56:51;1003.4;;;15.3;40.5
53699;BME280;68408;53.952;27.612;2023-04-25T06:01:05;1003.5;;;15.1;41.3
53699;BME280;68408;53.952;27.612;2023-04-25T06:06:15;1003.4;;;15;42.2
53699;BME280;68408;53.952;27.612;2023-04-25T06:11:33;1003.3;;;14.8;43.5
53699;BME280;68408;53.952;27.612;2023-04-25T06:16:51;1003.4;;;14.5;45
53699;BME280;68408;53.952;27.612;2023-04-25T06:21:27;1003.5;;;14.3;46.1
53699;BME280;68408;53.952;27.612;2023-04-25T06:26:11;1003.5;;;14.2;47.4
53699;BME280;68408;53.952;27.612;2023-04-25T06:31:51;1003.4;;;14.1;48.8
53699;BME280;68408;53.952;27.612;2023-04-25T06:36:05;1003.3;;;14;49.2
53699;BME280;68408;53.952;27.612;2023-04-25T06:41:29;1003.3;;;13.9;50.4
53699;BME280;68408;53.952;27.612;2023-04-25T06:46:23;1003.2;;;14.2;50.5
53699;BME280;68408;53.952;27.612;2023-04-25T06:51:49;1003.1;;;14.6;50.5
53699;BME280;68408;53.952;27.612;2023-04-25T06:56:05;1003;;;14.8;49.8
53699;BME280;68408;53.952;27.612;2023-04-25T07:01:49;1003;;;14.7;50.2
53699;BME280;68408;53.952;27.612;2023-04-25T07:06:53;1003;;;14.9;50.1
53699;BME280;68408;53.952;27.612;2023-04-25T07:11:27;1003;;;15.2;49.7
53699;BME280;68408;53.952;27.612;2023-04-25T07:16:15;1003;;;15.4;49.5
53699;BME280;68408;53.952;27.612;2023-04-25T07:21:31;1003;;;15.4;49.3
53699;BME280;68408;53.952;27.612;2023-04-25T07:26:27;1002.9;;;15.4;49.2
53699;BME280;68408;53.952;27.612;2023-04-25T07:31:43;1003;;;15.2;49.6
53699;BME280;68408;53.952;27.612;2023-04-25T07:36:31;1003.1;;;15.1;50.6
53699;BME280;68408;53.952;27.612;2023-04-25T07:41:53;1003.1;;;15.1;50.7
53699;BME280;68408;53.952;27.612;2023-04-25T07:46:29;1003.2;;;15;50.7
53699;BME280;68408;53.952;27.612;2023-04-25T07:51:05;1003.2;;;15;51
53699;BME280;68408;53.952;27.612;2023-04-25T07:56:23;1003.1;;;14.8;52
53699;BME280;68408;53.952;27.612;2023-04-25T08:01:51;1002.8;;;14.4;53.4
53699;BME280;68408;53.952;27.612;2023-04-25T08:06:15;1002.7;;;14;54.6
53699;BME280;68408;53.952;27.612;2023-04-25T08:11:39;1002.6;;;13.8;55.1
53699;BME280;68408;53.952;27.612;2023-04-25T08:16:39;1002.7;;;13.8;54.8
53699;BME280;68408;53.952;27.612;2023-04-25T08:21:05;1002.7;;;14;54.4
53699;BME280;68408;53.952;27.612;2023-04-25T08:26:25;1002.7;;;14.3;53.4
53699;BME280;68408;53.952;27.612;2023-04-25T08:31:06;1002.6;;;14.9;52.3
53699;BME280;68408;53.952;27.612;2023-04-25T08:36:17;1002.6;;;15.5;50.5
53699;BME280;68408;53.952;27.612;2023-04-25T08:41:44;1002.5;;;16;48.8
53699;BME280;68408;53.952;27.612;2023-04-25T08:46:33;1002.6;;;16.3;48.2
53699;BME280;68408;53.952;27.612;2023-04-25T08:51:21;1002.6;;;16.4;47.6
53699;BME280;68408;53.952;27.612;2023-04-25T08:56:38;1002.6;;;16.4;47.6
53699;BME280;68408;53.952;27.612;2023-04-25T09:01:43;1002.6;;;16.4;47.9
53699;BME280;68408;53.952;27.612;2023-04-25T09:06:39;1002.6;;;16.7;47.9
53699;BME280;68408;53.952;27.612;2023-04-25T09:11:25;1002.6;;;17.3;47.5
53699;BME280;68408;53.952;27.612;2023-04-25T09:16:50;1002.5;;;17.5;46.7
53699;BME280;68408;53.952;27.612;2023-04-25T09:21:53;1002.5;;;17.7;45.4
53699;BME280;68408;53.952;27.612;2023-04-25T09:26:51;1002.5;;;17.9;44.7
53699;BME280;68408;53.952;27.612;2023-04-25T09:31:29;1002.4;;;18.1;44.6
53699;BME280;68408;53.952;27.612;2023-04-25T09:36:43;1002.4;;;18.3;44.8
53699;BME280;68408;53.952;27.612;2023-04-25T09:41:29;1002.3;;;18.3;44.5
53699;BME280;68408;53.952;27.612;2023-04-25T09:46:11;1002.3;;;18.3;45.3
53699;BME280;68408;53.952;27.612;2023-04-25T09:51:06;1002.3;;;18;45.7
53699;BME280;68408;53.952;27.612;2023-04-25T09:56:52;1002.2;;;18;45.4
53699;BME280;68408;53.952;27.612;2023-04-25T10:01:17;1002.2;;;18.1;44.2
53699;BME280;68408;53.952;27.612;2023-04-25T10:06:52;1002.2;;;18.3;44
53699;BME280;68408;53.952;27.612;2023-04-25T10:11:51;1002.1;;;18.5;43.1
53699;BME280;68408;53.952;27.612;2023-04-25T10:16:05;1002.1;;;18.8;43.1
53699;BME280;68408;53.952;27.612;2023-04-25T10:21:27;1002;;;19.1;41.9
53699;BME280;68408;53.952;27.612;2023-04-25T10:26:29;1001.9;;;19.5;40.1
53699;BME280;68408;53.952;27.612;2023-04-25T10:31:44;1001.8;;;19.8;38.6
53699;BME280;68408;53.952;27.612;2023-04-25T10:36:47;1001.8;;;19.8;38.6
53699;BME280;68408;53.952;27.612;2023-04-25T10:41:45;1001.8;;;20.2;38.2
53699;BME280;68408;53.952;27.612;2023-04-25T10:46:51;1001.8;;;20.2;36.6
53699;BME280;68408;53.952;27.612;2023-04-25T10:51:37;1001.7;;;20.4;36
53699;BME280;68408;53.952;27.612;2023-04-25T10:56:18;1001.7;;;20.3;36.5
53699;BME280;68408;53.952;27.612;2023-04-25T11:01:26;1001.7;;;20.7;36.8
53699;BME280;68408;53.952;27.612;2023-04-25T11:07:03;1001.6;;;21.3;34.4
53699;BME280;68408;53.952;27.612;2023-04-25T11:11:13;1001.4;;;21.9;33.1
53699;BME280;68408;53.952;27.612;2023-04-25T11:16:41;1001.4;;;22.3;31.6
53699;BME280;68408;53.952;27.612;2023-04-25T11:21:39;1001.3;;;22.2;31.1
53699;BME280;68408;53.952;27.612;2023-04-25T11:26:05;1001.2;;;22.1;30.8
53699;BME280;68408;53.952;27.612;2023-04-25T11:31:37;1001.2;;;22;30.6
53699;BME280;68408;53.952;27.612;2023-04-25T11:36:39;1001.1;;;21.8;30.6
53699;BME280;68408;53.952;27.612;2023-04-25T11:41:17;1001.1;;;21.8;30.5
53699;BME280;68408;53.952;27.612;2023-04-25T11:46:44;1001;;;21.4;30.9
53699;BME280;68408;53.952;27.612;2023-04-25T11:51:51;1001.2;;;21;34.8
53699;BME280;68408;53.952;27.612;2023-04-25T11:56:17;1001.2;;;20;37.9
53699;BME280;68408;53.952;27.612;2023-04-25T12:01:36;1001.5;;;19.1;39.8
53699;BME280;68408;53.952;27.612;2023-04-25T12:06:19;1001.8;;;18.2;41.5
53699;BME280;68408;53.952;27.612;2023-04-25T12:11:41;1001.9;;;17.4;45
53699;BME280;68408;53.952;27.612;2023-04-25T12:16:27;1001.9;;;17;46.3
53699;BME280;68408;53.952;27.612;2023-04-25T12:21:07;1001.9;;;16.6;46.9
53699;BME280;68408;53.952;27.612;2023-04-25T12:27:00;1001.8;;;16.3;49.5
53699;BME280;68408;53.952;27.612;2023-04-25T12:31:54;1001.8;;;16.1;50
53699;BME280;68408;53.952;27.612;2023-04-25T12:36:17;1001.7;;;16.2;50.6
53699;BME280;68408;53.952;27.612;2023-04-25T12:41:52;1001.6;;;16.4;49.2
53699;BME280;68408;53.952;27.612;2023-04-25T12:46:44;1001.5;;;16.8;49.3
53699;BME280;68408;53.952;27.612;2023-04-25T12:51:17;1001.3;;;17.5;46.2
53699;BME280;68408;53.952;27.612;2023-04-25T12:56:23;1001.2;;;17.8;43.9
53699;BME280;68408;53.952;27.612;2023-04-25T13:01:51;1001.1;;;18.1;43.9
53699;BME280;68408;53.952;27.612;2023-04-25T13:06:06;1001;;;18.3;43.1
53699;BME280;68408;53.952;27.612;2023-04-25T13:11:40;1000.9;;;18.5;42.5
53699;BME280;68408;53.952;27.612;2023-04-25T13:16:52;1000.8;;;18.6;39.8
53699;BME280;68408;53.952;27.612;2023-04-25T13:21:36;1000.7;;;18.6;38.4
53699;BME280;68408;53.952;27.612;2023-04-25T13:26:16;1000.5;;;18.8;38.7
53699;BME280;68408;53.952;27.612;2023-04-25T13:31:17;1000.4;;;19;37
53699;BME280;68408;53.952;27.612;2023-04-25T13:36:06;1000.3;;;19;36.2
53699;BME280;68408;53.952;27.612;2023-04-25T13:41:44;1000.3;;;19;35.8
53699;BME280;68408;53.952;27.612;2023-04-25T13:46:06;1000.2;;;19.1;35.1
53699;BME280;68408;53.952;27.612;2023-04-25T13:51:24;1000.2;;;19.1;35.6
53699;BME280;68408;53.952;27.612;2023-04-25T13:56:36;1000.2;;;19.1;35.2
53699;BME280;68408;53.952;27.612;2023-04-25T14:01:06;1000.1;;;19.1;35.5
53699;BME280;68408;53.952;27.612;2023-04-25T14:06:24;1000.1;;;19.1;35.2
53699;BME280;68408;53.952;27.612;2023-04-25T14:11:50;1000.1;;;18.9;35.4
53699;BME280;68408;53.952;27.612;2023-04-25T14:16:06;1000.1;;;18.7;35.7
53699;BME280;68408;53.952;27.612;2023-04-25T14:21:40;1000.2;;;18.6;36.1
53699;BME280;68408;53.952;27.612;2023-04-25T14:26:38;1000.1;;;18.4;37
53699;BME280;68408;53.952;27.612;2023-04-25T14:31:16;1000.1;;;18.3;37.5
53699;BME280;68408;53.952;27.612;2023-04-25T14:36:52;1000.1;;;18.2;36.9
53699;BME280;68408;53.952;27.612;2023-04-25T14:41:06;1000.1;;;18.1;36.3
53699;BME280;68408;53.952;27.612;2023-04-25T14:46:06;1000;;;18.1;36.4
53699;BME280;68408;53.952;27.612;2023-04-25T14:51:44;999.9;;;18.1;36.2
53699;BME280;68408;53.952;27.612;2023-04-25T14:56:54;999.9;;;18.1;36.2
53699;BME280;68408;53.952;27.612;2023-04-25T15:01:16;999.9;;;18.1;36.4
53699;BME280;68408;53.952;27.612;2023-04-25T15:06:36;999.8;;;18.1;36.5
53699;BME280;68408;53.952;27.612;2023-04-25T15:11:54;999.7;;;18.1;36.5
53699;BME280;68408;53.952;27.612;2023-04-25T15:16:32;999.7;;;18.1;36.6
53699;BME280;68408;53.952;27.612;2023-04-25T15:21:28;999.7;;;18;36.9
53699;BME280;68408;53.952;27.612;2023-04-25T15:26:42;999.7;;;17.9;37
53699;BME280;68408;53.952;27.612;2023-04-25T15:31:54;999.7;;;17.9;37.5
53699;BME280;68408;53.952;27.612;2023-04-25T15:36:44;999.7;;;17.9;37.5
53699;BME280;68408;53.952;27.612;2023-04-25T15:41:06;999.8;;;18;38
53699;BME280;68408;53.952;27.612;2023-04-25T15:46:52;999.9;;;18;38.5
53699;BME280;68408;53.952;27.612;2023-04-25T15:51:44;999.8;;;18;38.6
53699;BME280;68408;53.952;27.612;2023-04-25T15:56:32;999.8;;;18;38
53699;BME280;68408;53.952;27.612;2023-04-25T16:01:06;999.8;;;18;38
53699;BME280;68408;53.952;27.612;2023-04-25T16:06:52;999.6;;;18.1;37.9
53699;BME280;68408;53.952;27.612;2023-04-25T16:11:18;999.6;;;18.1;37.8
53699;BME280;68408;53.952;27.612;2023-04-25T16:16:38;999.5;;;18.1;37.6
53699;BME280;68408;53.952;27.612;2023-04-25T16:21:50;999.5;;;18.1;37.7
53699;BME280;68408;53.952;27.612;2023-04-25T16:26:16;999.5;;;18;38.3
53699;BME280;68408;53.952;27.612;2023-04-25T16:31:14;999.5;;;18;38.6
53699;BME280;68408;53.952;27.612;2023-04-25T16:36:18;999.5;;;18;39
53699;BME280;68408;53.952;27.612;2023-04-25T16:41:06;999.5;;;18;39.3
53699;BME280;68408;53.952;27.612;2023-04-25T16:46:36;999.6;;;17.8;39.9
53699;BME280;68408;53.952;27.612;2023-04-25T16:51:32;999.6;;;17.5;41.3
53699;BME280;68408;53.952;27.612;2023-04-25T16:56:24;999.7;;;17.2;42.4
53699;BME280;68408;53.952;27.612;2023-04-25T17:01:36;999.7;;;16.9;43
53699;BME280;68408;53.952;27.612;2023-04-25T17:06:52;999.7;;;16.6;43.6
53699;BME280;68408;53.952;27.612;2023-04-25T17:11:36;999.7;;;16.4;43.9
53699;BME280;68408;53.952;27.612;2023-04-25T17:16:33;999.7;;;16.3;44.4
53699;BME280;68408;53.952;27.612;2023-04-25T17:21:28;999.7;;;16.2;44.7
53699;BME280;68408;53.952;27.612;2023-04-25T17:26:52;999.7;;;16.2;45
53699;BME280;68408;53.952;27.612;2023-04-25T17:31:06;999.9;;;16.1;45.5
53699;BME280;68408;53.952;27.612;2023-04-25T17:36:18;1000.1;;;16;46.8
53699;BME280;68408;53.952;27.612;2023-04-25T17:41:52;1000.1;;;15.9;47.3
53699;BME280;68408;53.952;27.612;2023-04-25T17:46:30;1000.1;;;15.8;47.5
53699;BME280;68408;53.952;27.612;2023-04-25T17:51:12;1000.2;;;15.8;48
53699;BME280;68408;53.952;27.612;2023-04-25T17:56:24;1000.2;;;15.6;48.7
53699;BME280;68408;53.952;27.612;2023-04-25T18:01:50;1000.3;;;15.5;48.2
53699;BME280;68408;53.952;27.612;2023-04-25T18:06:20;1000.3;;;15.3;49.1
53699;BME280;68408;53.952;27.612;2023-04-25T18:11:52;1000.3;;;15.2;49.7
53699;BME280;68408;53.952;27.612;2023-04-25T18:16:32;1000.3;;;15.1;50.1
53699;BME280;68408;53.952;27.612;2023-04-25T18:21:40;1000.5;;;15.1;50.9
53699;BME280;68408;53.952;27.612;2023-04-25T18:26:28;1000.4;;;14.9;50.7
53699;BME280;68408;53.952;27.612;2023-04-25T18:31:14;1000.4;;;14.9;50.8
53699;BME280;68408;53.952;27.612;2023-04-25T18:36:52;1000.4;;;14.8;51
53699;BME280;68408;53.952;27.612;2023-04-25T18:41:52;1000.4;;;14.8;51.1
53699;BME280;68408;53.952;27.612;2023-04-25T18:46:52;1000.5;;;14.7;51.1
53699;BME280;68408;53.952;27.612;2023-04-25T18:51:52;1000.5;;;14.7;51.2
53699;BME280;68408;53.952;27.612;2023-04-25T18:56:34;1000.5;;;14.7;51.5
53699;BME280;68408;53.952;27.612;2023-04-25T19:01:44;1000.4;;;14.6;51.7
53699;BME280;68408;53.952;27.612;2023-04-25T19:06:24;1000.4;;;14.6;52
53699;BME280;68408;53.952;27.612;2023-04-25T19:11:52;1000.3;;;14.5;52.2
53699;BME280;68408;53.952;27.612;2023-04-25T19:16:16;1000.3;;;14.4;52.5
53699;BME280;68408;53.952;27.612;2023-04-25T19:21:40;1000.3;;;14.4;52.7
53699;BME280;68408;53.952;27.612;2023-04-25T19:26:52;1000.3;;;14.4;52.8
53699;BME280;68408;53.952;27.612;2023-04-25T19:31:06;1000.3;;;14.3;53.1
53699;BME280;68408;53.952;27.612;2023-04-25T19:36:44;1000.2;;;14.3;53.7
53699;BME280;68408;53.952;27.612;2023-04-25T19:41:30;1000.2;;;14.2;53.9
53699;BME280;68408;53.952;27.612;2023-04-25T19:46:12;1000.2;;;14.2;54.1
53699;BME280;68408;53.952;27.612;2023-04-25T19:51:44;1000.1;;;14.1;54.5
53699;BME280;68408;53.952;27.612;2023-04-25T19:56:32;1000.1;;;14;54.7
53699;BME280;68408;53.952;27.612;2023-04-25T20:01:24;1000.1;;;14;55.1
53699;BME280;68408;53.952;27.612;2023-04-25T20:06:30;1000.1;;;13.9;55.4
53699;BME280;68408;53.952;27.612;2023-04-25T20:11:52;1000.1;;;13.9;55.6
53699;BME280;68408;53.952;27.612;2023-04-25T20:16:06;1000.1;;;13.8;55.8
53699;BME280;68408;53.952;27.612;2023-04-25T20:21:26;1000.1;;;13.8;55.7
53699;BME280;68408;53.952;27.612;2023-04-25T20:26:26;1000.1;;;13.7;56.1
53699;BME280;68408;53.952;27.612;2023-04-25T20:31:52;1000.1;;;13.7;56.3
53699;BME280;68408;53.952;27.612;2023-04-25T20:36:06;1000.1;;;13.7;56.2
53699;BME280;68408;53.952;27.612;2023-04-25T20:41:12;1000.1;;;13.7;56.3
53699;BME280;68408;53.952;27.612;2023-04-25T20:46:52;1000.1;;;13.7;56.3
53699;BME280;68408;53.952;27.612;2023-04-25T20:51:30;1000.1;;;13.7;56.2
53699;BME280;68408;53.952;27.612;2023-04-25T20:56:18;1000;;;13.7;56.6
53699;BME280;68408;53.952;27.612;2023-04-25T21:01:24;1000;;;13.6;56.4
53699;BME280;68408;53.952;27.612;2023-04-25T21:06:54;1000;;;13.6;56.5
53699;BME280;68408;53.952;27.612;2023-04-25T21:11:32;1000;;;13.6;56.7
53699;BME280;68408;53.952;27.612;2023-04-25T21:16:52;999.9;;;13.5;56.9
53699;BME280;68408;53.952;27.612;2023-04-25T21:21:52;1000;;;13.5;57.3
53699;BME280;68408;53.952;27.612;2023-04-25T21:26:18;1000;;;13.4;57.7
53699;BME280;68408;53.952;27.612;2023-04-25T21:31:28;1000.1;;;13.3;58
53699;BME280;68408;53.952;27.612;2023-04-25T21:36:40;1000.2;;;13.2;58.2
53699;BME280;68408;53.952;27.612;2023-04-25T21:41:14;1000.1;;;13.1;58.9
53699;BME280;68408;53.952;27.612;2023-04-25T21:46:44;1000.1;;;13;59.4
53699;BME280;68408;53.952;27.612;2023-04-25T21:51:32;1000.1;;;12.8;59.8
53699;BME280;68408;53.952;27.612;2023-04-25T21:56:52;1000;;;12.7;59.9
53699;BME280;68408;53.952;27.612;2023-04-25T22:01:30;1000;;;12.7;60
53699;BME280;68408;53.952;27.612;2023-04-25T22:06:06;1000;;;12.6;60.5
53699;BME280;68408;53.952;27.612;2023-04-25T22:11:06;1000.1;;;12.4;61.1
53699;BME280;68408;53.952;27.612;2023-04-25T22:16:52;1000.1;;;12.3;61.7
53699;BME280;68408;53.952;27.612;2023-04-25T22:21:18;1000.1;;;12.1;62
53699;BME280;68408;53.952;27.612;2023-04-25T22:26:40;1000.1;;;12.1;62.2
53699;BME280;68408;53.952;27.612;2023-04-25T22:31:40;1000;;;12;62.4
53699;BME280;68408;53.952;27.612;2023-04-25T22:36:28;1000;;;11.9;62.5
53699;BME280;68408;53.952;27.612;2023-04-25T22:41:36;1000;;;11.8;62.7
53699;BME280;68408;53.952;27.612;2023-04-25T22:46:32;1000;;;11.8;62.8
53699;BME280;68408;53.952;27.612;2023-04-25T22:51:24;1000;;;11.7;63
53699;BME280;68408;53.952;27.612;2023-04-25T22:56:44;1000;;;11.7;63.1
53699;BME280;68408;53.952;27.612;2023-04-25T23:01:50;1000;;;11.6;63.3
53699;BME280;68408;53.952;27.612;2023-04-25T23:06:06;999.9;;;11.6;63.5
53699;BME280;68408;53.952;27.612;2023-04-25T23:11:34;999.9;;;11.5;63.8
53699;BME280;68408;53.952;27.612;2023-04-25T23:16:50;999.9;;;11.4;64.1
53699;BME280;68408;53.952;27.612;2023-04-25T23:21:08;1000;;;11.4;64.2
53699;BME280;68408;53.952;27.612;2023-04-25T23:26:16;999.9;;;11.3;64.5
53699;BME280;68408;53.952;27.612;2023-04-25T23:31:40;999.9;;;11.3;64.6
53699;BME280;68408;53.952;27.612;2023-04-25T23:36:52;999.9;;;11.2;64.5
53699;BME280;68408;53.952;27.612;2023-04-25T23:41:50;999.8;;;11.2;64.5
53699;BME280;68408;53.952;27.612;2023-04-25T23:46:06;999.8;;;11.2;64.3
53699;BME280;68408;53.952;27.612;2023-04-25T23:51:48;999.8;;;11.2;64.2
53699;BME280;68408;53.952;27.612;2023-04-25T23:56:18;999.8;;;11.3;64.2
